sensor_id;sensor_type;location;lat;lon;timestamp;noise_LAeq;noise_LA_min;noise_LA_max;noise_LA01;noise_LA95
74496;Laerm;62979;55.720;37.606;2023-04-15T00:02:20;41.28;35.97;53.82;;
74496;Laerm;62979;55.720;37.606;2023-04-15T00:04:47;45.11;35.92;58.90;;
74496;Laerm;62979;55.720;37.606;2023-04-15T00:07:15;40.30;36.14;45.51;;
74496;Laerm;62979;55.720;37.606;2023-04-15T00:09:42;43.40;36.03;56.61;;
74496;Laerm;62979;55.720;37.606;2023-04-15T00:12:10;41.55;35.57;47.20;;
74496;Laerm;62979;55.720;37.606;2023-04-15T00:14:37;40.73;35.81;50.12;;
74496;Laerm;62979;55.720;37.606;2023-04-15T00:17:04;39.94;34.70;45.27;;
74496;Laerm;62979;55.720;37.606;2023-04-15T00:19:32;44.32;36.18;56.91;;
74496;Laerm;62979;55.720;37.606;2023-04-15T00:21:59;44.70;34.37;55.15;;
74496;Laerm;62979;55.720;37.606;2023-04-15T00:24:27;44.53;36.35;57.19;;
74496;Laerm;62979;55.720;37.606;2023-04-15T00:26:55;43.53;35.54;55.21;;
74496;Laerm;62979;55.720;37.606;2023-04-15T00:29:22;44.37;35.55;60.60;;
74496;Laerm;62979;55.720;37.606;2023-04-15T00:31:49;47.48;35.82;61.09;;
74496;Laerm;62979;55.720;37.606;2023-04-15T00:34:16;41.35;35.49;49.82;;
74496;Laerm;62979;55.720;37.606;2023-04-15T00:36:44;44.05;36.85;55.85;;
74496;Laerm;62979;55.720;37.606;2023-04-15T00:39:10;41.38;36.86;50.54;;
74496;Laerm;62979;55.720;37.606;2023-04-15T00:41:39;46.49;35.81;73.14;;
74496;Laerm;62979;55.720;37.606;2023-04-15T00:44:06;42.04;36.92;57.68;;
74496;Laerm;62979;55.720;37.606;2023-04-15T00:46:36;43.37;36.59;51.83;;
74496;Laerm;62979;55.720;37.606;2023-04-15T00:49:05;41.11;34.88;53.61;;
74496;Laerm;62979;55.720;37.606;2023-04-15T00:51:32;47.08;35.85;62.82;;
74496;Laerm;62979;55.720;37.606;2023-04-15T00:54:02;44.97;35.40;57.75;;
74496;Laerm;62979;55.720;37.606;2023-04-15T00:56:29;42.31;35.38;59.54;;
74496;Laerm;62979;55.720;37.606;2023-04-15T00:58:58;43.58;34.89;60.83;;
74496;Laerm;62979;55.720;37.606;2023-04-15T01:01:25;49.54;36.33;64.68;;
74496;Laerm;62979;55.720;37.606;2023-04-15T01:03:56;41.08;35.33;53.53;;
74496;Laerm;62979;55.720;37.606;2023-04-15T01:06:23;44.09;36.79;54.13;;
74496;Laerm;62979;55.720;37.606;2023-04-15T01:08:51;41.44;35.94;59.93;;
74496;Laerm;62979;55.720;37.606;2023-04-15T01:11:19;40.13;35.70;51.23;;
74496;Laerm;62979;55.720;37.606;2023-04-15T01:13:47;39.99;35.58;44.45;;
74496;Laerm;62979;55.720;37.606;2023-04-15T01:16:15;44.45;36.58;59.32;;
74496;Laerm;62979;55.720;37.606;2023-04-15T01:18:42;45.78;35.56;59.82;;
74496;Laerm;62979;55.720;37.606;2023-04-15T01:21:10;41.70;35.56;52.26;;
74496;Laerm;62979;55.720;37.606;2023-04-15T01:23:38;39.86;35.74;51.28;;
74496;Laerm;62979;55.720;37.606;2023-04-15T01:26:07;41.14;35.66;53.86;;
74496;Laerm;62979;55.720;37.606;2023-04-15T01:28:35;41.15;36.38;52.74;;
74496;Laerm;62979;55.720;37.606;2023-04-15T01:31:06;40.41;35.01;45.37;;
74496;Laerm;62979;55.720;37.606;2023-04-15T01:33:34;41.50;36.29;52.59;;
74496;Laerm;62979;55.720;37.606;2023-04-15T01:36:01;41.90;36.94;53.10;;
74496;Laerm;62979;55.720;37.606;2023-04-15T01:38:29;42.42;36.84;56.42;;
74496;Laerm;62979;55.720;37.606;2023-04-15T01:40:56;44.66;36.55;61.89;;
74496;Laerm;62979;55.720;37.606;2023-04-15T01:43:25;52.36;39.39;64.32;;
74496;Laerm;62979;55.720;37.606;2023-04-15T01:45:52;41.33;36.64;47.61;;
74496;Laerm;62979;55.720;37.606;2023-04-15T01:48:19;41.77;36.15;51.66;;
74496;Laerm;62979;55.720;37.606;2023-04-15T01:50:46;52.21;37.79;62.85;;
74496;Laerm;62979;55.720;37.606;2023-04-15T01:53:13;46.12;36.75;57.37;;
74496;Laerm;62979;55.720;37.606;2023-04-15T01:55:40;42.31;35.57;53.14;;
74496;Laerm;62979;55.720;37.606;2023-04-15T01:58:07;45.25;36.43;61.20;;
74496;Laerm;62979;55.720;37.606;2023-04-15T02:00:35;42.45;36.56;62.32;;
74496;Laerm;62979;55.720;37.606;2023-04-15T02:03:02;53.35;36.00;66.11;;
74496;Laerm;62979;55.720;37.606;2023-04-15T02:05:29;43.20;36.86;55.51;;
74496;Laerm;62979;55.720;37.606;2023-04-15T02:07:56;41.59;36.66;55.60;;
74496;Laerm;62979;55.720;37.606;2023-04-15T02:10:23;46.45;37.04;59.96;;
74496;Laerm;62979;55.720;37.606;2023-04-15T02:12:50;42.06;36.54;53.89;;
74496;Laerm;62979;55.720;37.606;2023-04-15T02:15:19;42.16;36.88;54.39;;
74496;Laerm;62979;55.720;37.606;2023-04-15T02:17:47;46.12;37.30;58.10;;
74496;Laerm;62979;55.720;37.606;2023-04-15T02:20:17;42.50;36.39;55.41;;
74496;Laerm;62979;55.720;37.606;2023-04-15T02:22:45;55.12;37.24;74.31;;
74496;Laerm;62979;55.720;37.606;2023-04-15T02:25:13;42.85;37.06;53.60;;
74496;Laerm;62979;55.720;37.606;2023-04-15T02:27:41;45.43;38.11;57.95;;
74496;Laerm;62979;55.720;37.606;2023-04-15T02:30:08;50.61;37.14;63.16;;
74496;Laerm;62979;55.720;37.606;2023-04-15T02:32:36;62.24;40.08;74.87;;
74496;Laerm;62979;55.720;37.606;2023-04-15T02:35:06;46.19;37.36;60.66;;
74496;Laerm;62979;55.720;37.606;2023-04-15T02:37:36;43.03;36.91;60.73;;
74496;Laerm;62979;55.720;37.606;2023-04-15T02:40:09;44.24;37.61;53.62;;
74496;Laerm;62979;55.720;37.606;2023-04-15T02:42:37;42.96;36.06;54.07;;
74496;Laerm;62979;55.720;37.606;2023-04-15T02:45:06;44.83;38.25;53.36;;
74496;Laerm;62979;55.720;37.606;2023-04-15T02:47:34;48.58;36.89;62.85;;
74496;Laerm;62979;55.720;37.606;2023-04-15T02:50:04;43.74;36.83;59.47;;
74496;Laerm;62979;55.720;37.606;2023-04-15T02:52:31;42.77;36.77;53.33;;
74496;Laerm;62979;55.720;37.606;2023-04-15T02:54:58;47.50;37.07;58.53;;
74496;Laerm;62979;55.720;37.606;2023-04-15T02:57:27;47.51;38.60;60.60;;
74496;Laerm;62979;55.720;37.606;2023-04-15T02:59:54;61.61;38.60;72.44;;
74496;Laerm;62979;55.720;37.606;2023-04-15T03:02:21;47.56;38.52;58.36;;
74496;Laerm;62979;55.720;37.606;2023-04-15T03:04:49;47.94;38.36;61.51;;
74496;Laerm;62979;55.720;37.606;2023-04-15T03:07:19;62.16;39.85;71.79;;
74496;Laerm;62979;55.720;37.606;2023-04-15T03:09:46;50.49;38.49;65.86;;
74496;Laerm;62979;55.720;37.606;2023-04-15T03:12:13;60.63;42.45;71.40;;
74496;Laerm;62979;55.720;37.606;2023-04-15T03:14:40;49.27;37.99;64.85;;
74496;Laerm;62979;55.720;37.606;2023-04-15T03:17:07;50.49;37.68;65.38;;
74496;Laerm;62979;55.720;37.606;2023-04-15T03:19:34;48.93;38.34;64.01;;
74496;Laerm;62979;55.720;37.606;2023-04-15T03:22:01;48.39;38.63;59.85;;
74496;Laerm;62979;55.720;37.606;2023-04-15T03:24:29;47.37;37.13;59.25;;
74496;Laerm;62979;55.720;37.606;2023-04-15T03:26:56;46.12;38.66;64.39;;
74496;Laerm;62979;55.720;37.606;2023-04-15T03:29:23;52.63;41.42;66.87;;
74496;Laerm;62979;55.720;37.606;2023-04-15T03:31:51;49.04;36.83;70.27;;
74496;Laerm;62979;55.720;37.606;2023-04-15T03:34:18;50.18;39.74;71.49;;
74496;Laerm;62979;55.720;37.606;2023-04-15T03:36:45;47.24;38.64;58.37;;
74496;Laerm;62979;55.720;37.606;2023-04-15T03:39:12;52.38;39.90;63.59;;
74496;Laerm;62979;55.720;37.606;2023-04-15T03:41:40;49.20;38.95;66.03;;
74496;Laerm;62979;55.720;37.606;2023-04-15T03:44:07;48.99;39.65;60.22;;
74496;Laerm;62979;55.720;37.606;2023-04-15T03:46:34;44.30;39.19;67.76;;
74496;Laerm;62979;55.720;37.606;2023-04-15T03:49:01;48.82;39.68;62.55;;
74496;Laerm;62979;55.720;37.606;2023-04-15T03:51:28;50.06;39.24;67.70;;
74496;Laerm;62979;55.720;37.606;2023-04-15T03:53:55;49.88;38.94;59.77;;
74496;Laerm;62979;55.720;37.606;2023-04-15T03:56:23;49.34;39.06;62.06;;
74496;Laerm;62979;55.720;37.606;2023-04-15T03:58:52;48.38;38.63;67.88;;
74496;Laerm;62979;55.720;37.606;2023-04-15T04:01:18;51.05;40.45;61.58;;
74496;Laerm;62979;55.720;37.606;2023-04-15T04:03:45;47.52;39.69;60.56;;
74496;Laerm;62979;55.720;37.606;2023-04-15T04:06:12;47.45;39.23;57.60;;
74496;Laerm;62979;55.720;37.606;2023-04-15T04:08:40;46.71;38.11;63.81;;
74496;Laerm;62979;55.720;37.606;2023-04-15T04:11:07;50.48;41.34;60.05;;
74496;Laerm;62979;55.720;37.606;2023-04-15T04:13:34;48.40;39.07;61.61;;
74496;Laerm;62979;55.720;37.606;2023-04-15T04:16:02;47.36;39.92;61.13;;
74496;Laerm;62979;55.720;37.606;2023-04-15T04:18:30;47.88;38.35;58.93;;
74496;Laerm;62979;55.720;37.606;2023-04-15T04:20:57;49.50;41.10;60.11;;
74496;Laerm;62979;55.720;37.606;2023-04-15T04:23:24;49.92;39.38;63.88;;
74496;Laerm;62979;55.720;37.606;2023-04-15T04:25:51;49.79;39.95;61.70;;
74496;Laerm;62979;55.720;37.606;2023-04-15T04:28:18;44.03;38.44;64.52;;
74496;Laerm;62979;55.720;37.606;2023-04-15T04:30:45;49.31;39.51;65.18;;
74496;Laerm;62979;55.720;37.606;2023-04-15T04:33:13;50.31;39.50;62.37;;
74496;Laerm;62979;55.720;37.606;2023-04-15T04:35:40;47.17;39.10;58.90;;
74496;Laerm;62979;55.720;37.606;2023-04-15T04:38:07;48.70;38.56;62.61;;
74496;Laerm;62979;55.720;37.606;2023-04-15T04:40:34;51.95;38.44;77.88;;
74496;Laerm;62979;55.720;37.606;2023-04-15T04:43:02;47.55;39.88;59.62;;
74496;Laerm;62979;55.720;37.606;2023-04-15T04:45:28;52.44;41.37;68.74;;
74496;Laerm;62979;55.720;37.606;2023-04-15T04:47:55;50.02;39.64;63.52;;
74496;Laerm;62979;55.720;37.606;2023-04-15T04:50:24;47.41;39.06;60.44;;
74496;Laerm;62979;55.720;37.606;2023-04-15T04:52:51;47.77;39.52;66.07;;
74496;Laerm;62979;55.720;37.606;2023-04-15T04:55:19;61.82;41.31;73.79;;
74496;Laerm;62979;55.720;37.606;2023-04-15T04:57:46;51.63;40.83;64.53;;
74496;Laerm;62979;55.720;37.606;2023-04-15T05:00:14;55.36;46.30;71.50;;
74496;Laerm;62979;55.720;37.606;2023-04-15T05:02:41;60.75;50.78;78.55;;
74496;Laerm;62979;55.720;37.606;2023-04-15T05:05:09;59.89;42.18;72.95;;
74496;Laerm;62979;55.720;37.606;2023-04-15T05:07:38;51.24;40.64;63.97;;
74496;Laerm;62979;55.720;37.606;2023-04-15T05:10:07;50.40;39.66;68.31;;
74496;Laerm;62979;55.720;37.606;2023-04-15T05:12:35;51.48;40.38;62.58;;
74496;Laerm;62979;55.720;37.606;2023-04-15T05:15:04;51.81;40.54;66.23;;
74496;Laerm;62979;55.720;37.606;2023-04-15T05:17:31;45.85;39.89;54.91;;
74496;Laerm;62979;55.720;37.606;2023-04-15T05:19:59;51.87;41.63;62.05;;
74496;Laerm;62979;55.720;37.606;2023-04-15T05:22:26;50.78;41.95;61.44;;
74496;Laerm;62979;55.720;37.606;2023-04-15T05:24:55;50.70;42.62;64.04;;
74496;Laerm;62979;55.720;37.606;2023-04-15T05:27:21;57.62;44.94;73.25;;
74496;Laerm;62979;55.720;37.606;2023-04-15T05:29:49;51.94;43.52;65.37;;
74496;Laerm;62979;55.720;37.606;2023-04-15T05:32:16;48.48;43.08;61.61;;
74496;Laerm;62979;55.720;37.606;2023-04-15T05:34:43;47.18;42.92;56.64;;
74496;Laerm;62979;55.720;37.606;2023-04-15T05:37:10;51.39;44.54;65.96;;
74496;Laerm;62979;55.720;37.606;2023-04-15T05:39:37;53.86;43.51;65.72;;
74496;Laerm;62979;55.720;37.606;2023-04-15T05:42:05;54.73;44.88;70.76;;
74496;Laerm;62979;55.720;37.606;2023-04-15T05:44:32;53.01;44.73;62.72;;
74496;Laerm;62979;55.720;37.606;2023-04-15T05:46:59;59.24;47.26;79.53;;
74496;Laerm;62979;55.720;37.606;2023-04-15T05:49:28;53.71;43.77;64.92;;
74496;Laerm;62979;55.720;37.606;2023-04-15T05:51:55;53.58;44.92;66.69;;
74496;Laerm;62979;55.720;37.606;2023-04-15T05:54:22;55.02;46.02;67.52;;
74496;Laerm;62979;55.720;37.606;2023-04-15T05:56:48;63.29;45.18;75.45;;
74496;Laerm;62979;55.720;37.606;2023-04-15T05:59:17;57.68;46.13;70.46;;
74496;Laerm;62979;55.720;37.606;2023-04-15T06:01:44;53.62;43.86;64.92;;
74496;Laerm;62979;55.720;37.606;2023-04-15T06:04:12;55.69;43.95;76.32;;
74496;Laerm;62979;55.720;37.606;2023-04-15T06:06:39;54.70;45.11;63.25;;
74496;Laerm;62979;55.720;37.606;2023-04-15T06:09:06;51.57;41.86;65.25;;
74496;Laerm;62979;55.720;37.606;2023-04-15T06:11:33;54.82;43.26;63.43;;
74496;Laerm;62979;55.720;37.606;2023-04-15T06:14:00;52.33;41.31;63.11;;
74496;Laerm;62979;55.720;37.606;2023-04-15T06:16:29;54.27;42.99;68.91;;
74496;Laerm;62979;55.720;37.606;2023-04-15T06:18:56;59.38;43.50;78.06;;
74496;Laerm;62979;55.720;37.606;2023-04-15T06:21:22;58.91;47.43;69.35;;
74496;Laerm;62979;55.720;37.606;2023-04-15T06:23:50;53.24;43.39;71.99;;
74496;Laerm;62979;55.720;37.606;2023-04-15T06:26:17;51.42;41.63;66.24;;
74496;Laerm;62979;55.720;37.606;2023-04-15T06:28:44;52.81;44.67;65.24;;
74496;Laerm;62979;55.720;37.606;2023-04-15T06:31:10;54.27;42.43;81.21;;
74496;Laerm;62979;55.720;37.606;2023-04-15T06:33:39;52.88;43.96;61.21;;
74496;Laerm;62979;55.720;37.606;2023-04-15T06:36:06;52.84;43.30;63.85;;
74496;Laerm;62979;55.720;37.606;2023-04-15T06:38:33;61.52;44.04;81.78;;
74496;Laerm;62979;55.720;37.606;2023-04-15T06:41:03;60.99;49.27;69.07;;
74496;Laerm;62979;55.720;37.606;2023-04-15T06:43:30;54.60;43.75;64.33;;
74496;Laerm;62979;55.720;37.606;2023-04-15T06:45:57;55.06;44.01;64.10;;
74496;Laerm;62979;55.720;37.606;2023-04-15T06:48:24;54.59;45.26;71.86;;
74496;Laerm;62979;55.720;37.606;2023-04-15T06:50:53;55.65;45.55;80.36;;
74496;Laerm;62979;55.720;37.606;2023-04-15T06:53:20;57.40;44.95;76.51;;
74496;Laerm;62979;55.720;37.606;2023-04-15T06:55:47;55.03;45.04;74.93;;
74496;Laerm;62979;55.720;37.606;2023-04-15T06:58:14;54.13;45.09;74.28;;
74496;Laerm;62979;55.720;37.606;2023-04-15T07:00:41;54.04;45.35;65.95;;
74496;Laerm;62979;55.720;37.606;2023-04-15T07:03:10;53.73;45.28;65.49;;
74496;Laerm;62979;55.720;37.606;2023-04-15T07:05:37;53.74;44.88;67.63;;
74496;Laerm;62979;55.720;37.606;2023-04-15T07:08:06;55.11;43.70;66.31;;
74496;Laerm;62979;55.720;37.606;2023-04-15T07:10:33;54.72;42.80;66.60;;
74496;Laerm;62979;55.720;37.606;2023-04-15T07:13:00;52.86;43.69;62.71;;
74496;Laerm;62979;55.720;37.606;2023-04-15T07:15:27;54.20;46.20;63.41;;
74496;Laerm;62979;55.720;37.606;2023-04-15T07:17:54;54.04;46.56;62.55;;
74496;Laerm;62979;55.720;37.606;2023-04-15T07:20:21;53.98;45.15;62.35;;
74496;Laerm;62979;55.720;37.606;2023-04-15T07:22:48;52.54;44.26;61.13;;
74496;Laerm;62979;55.720;37.606;2023-04-15T07:25:16;54.44;44.80;62.49;;
74496;Laerm;62979;55.720;37.606;2023-04-15T07:27:43;54.86;45.72;70.32;;
74496;Laerm;62979;55.720;37.606;2023-04-15T07:30:11;54.87;44.68;78.95;;
74496;Laerm;62979;55.720;37.606;2023-04-15T07:32:38;56.14;46.70;68.47;;
74496;Laerm;62979;55.720;37.606;2023-04-15T07:35:06;51.94;44.78;59.54;;
74496;Laerm;62979;55.720;37.606;2023-04-15T07:37:34;54.32;42.61;63.54;;
74496;Laerm;62979;55.720;37.606;2023-04-15T07:40:02;57.84;42.43;71.08;;
74496;Laerm;62979;55.720;37.606;2023-04-15T07:42:31;56.88;48.66;73.02;;
74496;Laerm;62979;55.720;37.606;2023-04-15T07:44:58;58.39;49.13;69.07;;
74496;Laerm;62979;55.720;37.606;2023-04-15T07:47:25;60.49;48.35;71.19;;
74496;Laerm;62979;55.720;37.606;2023-04-15T07:49:52;55.04;48.05;65.29;;
74496;Laerm;62979;55.720;37.606;2023-04-15T07:52:19;57.42;45.58;69.03;;
74496;Laerm;62979;55.720;37.606;2023-04-15T07:54:46;56.47;46.80;67.08;;
74496;Laerm;62979;55.720;37.606;2023-04-15T07:57:14;56.73;47.32;68.18;;
74496;Laerm;62979;55.720;37.606;2023-04-15T07:59:42;61.40;47.02;70.30;;
74496;Laerm;62979;55.720;37.606;2023-04-15T08:02:10;55.87;47.46;64.64;;
74496;Laerm;62979;55.720;37.606;2023-04-15T08:04:37;56.08;48.06;65.21;;
74496;Laerm;62979;55.720;37.606;2023-04-15T08:07:05;60.65;48.53;72.41;;
74496;Laerm;62979;55.720;37.606;2023-04-15T08:09:32;55.71;45.52;82.68;;
74496;Laerm;62979;55.720;37.606;2023-04-15T08:11:59;57.90;47.05;72.79;;
74496;Laerm;62979;55.720;37.606;2023-04-15T08:14:26;60.21;46.07;72.05;;
74496;Laerm;62979;55.720;37.606;2023-04-15T08:16:54;55.48;44.87;72.74;;
74496;Laerm;62979;55.720;37.606;2023-04-15T08:19:21;55.39;46.37;69.52;;
74496;Laerm;62979;55.720;37.606;2023-04-15T08:21:48;54.28;43.52;64.96;;
74496;Laerm;62979;55.720;37.606;2023-04-15T08:24:15;55.10;48.25;70.90;;
74496;Laerm;62979;55.720;37.606;2023-04-15T08:26:42;54.46;43.40;66.11;;
74496;Laerm;62979;55.720;37.606;2023-04-15T08:29:09;55.33;44.57;75.04;;
74496;Laerm;62979;55.720;37.606;2023-04-15T08:31:36;54.78;44.21;75.04;;
74496;Laerm;62979;55.720;37.606;2023-04-15T08:34:04;55.44;47.20;65.98;;
74496;Laerm;62979;55.720;37.606;2023-04-15T08:36:31;54.72;44.31;64.61;;
74496;Laerm;62979;55.720;37.606;2023-04-15T08:38:58;54.18;43.83;63.98;;
74496;Laerm;62979;55.720;37.606;2023-04-15T08:41:32;53.76;44.84;62.95;;
74496;Laerm;62979;55.720;37.606;2023-04-15T08:44:03;54.45;43.34;65.29;;
74496;Laerm;62979;55.720;37.606;2023-04-15T08:46:31;54.05;43.86;66.83;;
74496;Laerm;62979;55.720;37.606;2023-04-15T08:49:03;53.78;46.32;71.88;;
74496;Laerm;62979;55.720;37.606;2023-04-15T08:51:32;55.37;46.09;73.33;;
74496;Laerm;62979;55.720;37.606;2023-04-15T08:54:01;54.17;42.85;67.44;;
74496;Laerm;62979;55.720;37.606;2023-04-15T08:56:30;55.11;45.97;66.71;;
74496;Laerm;62979;55.720;37.606;2023-04-15T08:58:58;53.91;46.63;62.04;;
74496;Laerm;62979;55.720;37.606;2023-04-15T09:01:26;55.08;44.61;76.84;;
74496;Laerm;62979;55.720;37.606;2023-04-15T09:03:53;57.34;46.20;66.63;;
74496;Laerm;62979;55.720;37.606;2023-04-15T09:06:22;59.29;50.76;72.69;;
74496;Laerm;62979;55.720;37.606;2023-04-15T09:08:50;58.09;45.41;71.17;;
74496;Laerm;62979;55.720;37.606;2023-04-15T09:11:18;59.20;48.00;69.80;;
74496;Laerm;62979;55.720;37.606;2023-04-15T09:13:45;57.31;46.25;72.56;;
74496;Laerm;62979;55.720;37.606;2023-04-15T09:16:12;54.50;46.81;62.65;;
74496;Laerm;62979;55.720;37.606;2023-04-15T09:18:40;55.33;46.10;66.25;;
74496;Laerm;62979;55.720;37.606;2023-04-15T09:21:10;57.44;45.95;72.63;;
74496;Laerm;62979;55.720;37.606;2023-04-15T09:23:40;54.25;41.59;63.26;;
74496;Laerm;62979;55.720;37.606;2023-04-15T09:26:07;52.65;43.12;66.42;;
74496;Laerm;62979;55.720;37.606;2023-04-15T09:28:41;54.54;45.52;64.55;;
74496;Laerm;62979;55.720;37.606;2023-04-15T09:31:08;54.41;43.31;65.08;;
74496;Laerm;62979;55.720;37.606;2023-04-15T09:33:54;52.87;44.50;62.47;;
74496;Laerm;62979;55.720;37.606;2023-04-15T09:36:21;52.26;43.77;66.15;;
74496;Laerm;62979;55.720;37.606;2023-04-15T09:38:55;56.58;46.11;70.52;;
74496;Laerm;62979;55.720;37.606;2023-04-15T09:41:23;53.06;42.71;61.98;;
74496;Laerm;62979;55.720;37.606;2023-04-15T09:43:50;53.37;43.50;63.50;;
74496;Laerm;62979;55.720;37.606;2023-04-15T09:46:18;54.99;45.41;65.33;;
74496;Laerm;62979;55.720;37.606;2023-04-15T09:48:46;54.07;45.41;63.99;;
74496;Laerm;62979;55.720;37.606;2023-04-15T09:51:33;56.63;47.99;74.29;;
74496;Laerm;62979;55.720;37.606;2023-04-15T09:54:03;54.90;45.85;74.19;;
74496;Laerm;62979;55.720;37.606;2023-04-15T09:56:33;53.15;43.62;63.71;;
74496;Laerm;62979;55.720;37.606;2023-04-15T09:59:00;50.88;43.46;66.54;;
74496;Laerm;62979;55.720;37.606;2023-04-15T10:01:28;55.32;47.50;63.34;;
74496;Laerm;62979;55.720;37.606;2023-04-15T10:03:56;59.21;48.13;85.98;;
74496;Laerm;62979;55.720;37.606;2023-04-15T10:06:25;56.82;43.65;65.47;;
74496;Laerm;62979;55.720;37.606;2023-04-15T10:08:53;54.93;46.07;65.75;;
74496;Laerm;62979;55.720;37.606;2023-04-15T10:11:23;55.42;47.87;63.92;;
74496;Laerm;62979;55.720;37.606;2023-04-15T10:13:51;58.69;46.68;72.12;;
74496;Laerm;62979;55.720;37.606;2023-04-15T10:16:20;52.04;43.56;61.51;;
74496;Laerm;62979;55.720;37.606;2023-04-15T10:18:54;56.53;49.30;66.70;;
74496;Laerm;62979;55.720;37.606;2023-04-15T10:21:21;53.64;45.41;61.47;;
74496;Laerm;62979;55.720;37.606;2023-04-15T10:23:49;52.34;43.29;63.52;;
74496;Laerm;62979;55.720;37.606;2023-04-15T10:26:16;54.52;45.16;63.26;;
74496;Laerm;62979;55.720;37.606;2023-04-15T10:28:45;54.28;45.02;68.27;;
74496;Laerm;62979;55.720;37.606;2023-04-15T10:31:13;53.57;45.56;66.78;;
74496;Laerm;62979;55.720;37.606;2023-04-15T10:33:43;52.74;43.75;63.54;;
74496;Laerm;62979;55.720;37.606;2023-04-15T10:36:10;57.25;45.66;73.15;;
74496;Laerm;62979;55.720;37.606;2023-04-15T10:38:40;54.26;45.91;64.03;;
74496;Laerm;62979;55.720;37.606;2023-04-15T10:41:16;52.92;45.94;63.26;;
74496;Laerm;62979;55.720;37.606;2023-04-15T10:43:51;53.94;45.08;62.36;;
74496;Laerm;62979;55.720;37.606;2023-04-15T10:46:21;54.61;45.68;62.75;;
74496;Laerm;62979;55.720;37.606;2023-04-15T10:48:50;55.79;47.70;71.80;;
74496;Laerm;62979;55.720;37.606;2023-04-15T10:51:27;52.39;43.81;60.10;;
74496;Laerm;62979;55.720;37.606;2023-04-15T10:53:56;55.02;46.40;67.65;;
74496;Laerm;62979;55.720;37.606;2023-04-15T10:56:24;54.99;45.47;66.69;;
74496;Laerm;62979;55.720;37.606;2023-04-15T10:58:53;55.93;45.43;71.21;;
74496;Laerm;62979;55.720;37.606;2023-04-15T11:01:20;60.69;51.83;76.46;;
74496;Laerm;62979;55.720;37.606;2023-04-15T11:03:48;59.98;46.07;72.98;;
74496;Laerm;62979;55.720;37.606;2023-04-15T11:06:16;55.00;44.88;68.78;;
74496;Laerm;62979;55.720;37.606;2023-04-15T11:08:54;55.41;47.03;75.63;;
74496;Laerm;62979;55.720;37.606;2023-04-15T11:11:37;54.02;45.30;66.57;;
74496;Laerm;62979;55.720;37.606;2023-04-15T11:14:26;53.72;45.79;68.34;;
74496;Laerm;62979;55.720;37.606;2023-04-15T11:16:53;53.10;45.80;62.31;;
74496;Laerm;62979;55.720;37.606;2023-04-15T11:19:20;54.44;45.02;64.14;;
74496;Laerm;62979;55.720;37.606;2023-04-15T11:21:47;55.05;43.87;67.21;;
74496;Laerm;62979;55.720;37.606;2023-04-15T11:24:23;53.01;43.92;69.98;;
74496;Laerm;62979;55.720;37.606;2023-04-15T11:26:56;53.94;46.92;64.24;;
74496;Laerm;62979;55.720;37.606;2023-04-15T11:29:30;56.56;47.34;67.55;;
74496;Laerm;62979;55.720;37.606;2023-04-15T11:32:08;55.88;45.78;67.92;;
74496;Laerm;62979;55.720;37.606;2023-04-15T11:34:36;54.20;43.54;64.14;;
74496;Laerm;62979;55.720;37.606;2023-04-15T11:37:04;52.88;44.40;62.77;;
74496;Laerm;62979;55.720;37.606;2023-04-15T11:39:32;59.90;44.90;82.37;;
74496;Laerm;62979;55.720;37.606;2023-04-15T11:41:59;57.73;46.63;72.62;;
74496;Laerm;62979;55.720;37.606;2023-04-15T11:44:26;56.91;43.90;73.18;;
74496;Laerm;62979;55.720;37.606;2023-04-15T11:46:55;57.53;47.00;70.50;;
74496;Laerm;62979;55.720;37.606;2023-04-15T11:49:27;55.23;45.98;68.21;;
74496;Laerm;62979;55.720;37.606;2023-04-15T11:51:55;54.59;46.58;64.77;;
74496;Laerm;62979;55.720;37.606;2023-04-15T11:54:22;56.55;46.51;75.20;;
74496;Laerm;62979;55.720;37.606;2023-04-15T11:56:50;60.21;49.65;71.46;;
74496;Laerm;62979;55.720;37.606;2023-04-15T11:59:17;60.62;55.72;74.24;;
74496;Laerm;62979;55.720;37.606;2023-04-15T12:01:44;56.87;42.44;69.35;;
74496;Laerm;62979;55.720;37.606;2023-04-15T12:04:16;57.95;44.80;67.89;;
74496;Laerm;62979;55.720;37.606;2023-04-15T12:06:46;55.15;45.13;65.09;;
74496;Laerm;62979;55.720;37.606;2023-04-15T12:09:14;54.95;46.60;63.50;;
74496;Laerm;62979;55.720;37.606;2023-04-15T12:11:46;54.17;45.53;66.23;;
74496;Laerm;62979;55.720;37.606;2023-04-15T12:14:22;58.74;46.34;73.78;;
74496;Laerm;62979;55.720;37.606;2023-04-15T12:16:51;57.82;48.98;77.71;;
74496;Laerm;62979;55.720;37.606;2023-04-15T12:19:28;55.61;43.06;76.90;;
74496;Laerm;62979;55.720;37.606;2023-04-15T12:22:00;60.39;44.82;78.93;;
74496;Laerm;62979;55.720;37.606;2023-04-15T12:24:31;59.77;44.92;72.48;;
74496;Laerm;62979;55.720;37.606;2023-04-15T12:27:02;53.41;44.45;65.80;;
74496;Laerm;62979;55.720;37.606;2023-04-15T12:29:31;56.96;42.69;72.50;;
74496;Laerm;62979;55.720;37.606;2023-04-15T12:32:05;53.23;43.92;60.59;;
74496;Laerm;62979;55.720;37.606;2023-04-15T12:34:35;54.67;46.05;63.86;;
74496;Laerm;62979;55.720;37.606;2023-04-15T12:37:06;51.16;42.92;67.95;;
74496;Laerm;62979;55.720;37.606;2023-04-15T12:39:36;52.00;42.41;70.39;;
74496;Laerm;62979;55.720;37.606;2023-04-15T12:42:04;53.13;43.82;63.88;;
74496;Laerm;62979;55.720;37.606;2023-04-15T12:44:32;55.46;45.24;67.94;;
74496;Laerm;62979;55.720;37.606;2023-04-15T12:46:59;55.15;46.37;62.64;;
74496;Laerm;62979;55.720;37.606;2023-04-15T12:49:26;54.64;47.08;62.66;;
74496;Laerm;62979;55.720;37.606;2023-04-15T12:51:56;55.71;45.50;65.50;;
74496;Laerm;62979;55.720;37.606;2023-04-15T12:54:24;54.81;41.80;72.10;;
74496;Laerm;62979;55.720;37.606;2023-04-15T12:56:51;53.43;45.26;68.09;;
74496;Laerm;62979;55.720;37.606;2023-04-15T12:59:19;57.69;48.10;79.61;;
74496;Laerm;62979;55.720;37.606;2023-04-15T13:01:47;53.09;45.60;63.55;;
74496;Laerm;62979;55.720;37.606;2023-04-15T13:04:15;53.56;45.12;61.81;;
74496;Laerm;62979;55.720;37.606;2023-04-15T13:06:42;56.47;46.52;73.38;;
74496;Laerm;62979;55.720;37.606;2023-04-15T13:09:11;59.73;46.97;72.88;;
74496;Laerm;62979;55.720;37.606;2023-04-15T13:11:38;62.64;49.43;80.95;;
74496;Laerm;62979;55.720;37.606;2023-04-15T13:14:07;55.89;46.71;72.43;;
74496;Laerm;62979;55.720;37.606;2023-04-15T13:16:35;55.06;46.75;66.54;;
74496;Laerm;62979;55.720;37.606;2023-04-15T13:19:03;59.06;48.32;74.35;;
74496;Laerm;62979;55.720;37.606;2023-04-15T13:21:32;63.16;50.61;75.56;;
74496;Laerm;62979;55.720;37.606;2023-04-15T13:24:00;54.81;45.53;65.52;;
74496;Laerm;62979;55.720;37.606;2023-04-15T13:26:28;53.80;44.39;61.49;;
74496;Laerm;62979;55.720;37.606;2023-04-15T13:28:55;56.77;45.73;66.37;;
74496;Laerm;62979;55.720;37.606;2023-04-15T13:31:22;52.51;45.37;60.33;;
74496;Laerm;62979;55.720;37.606;2023-04-15T13:33:49;55.06;45.21;68.96;;
74496;Laerm;62979;55.720;37.606;2023-04-15T13:36:16;53.68;45.99;63.87;;
74496;Laerm;62979;55.720;37.606;2023-04-15T13:38:43;53.79;43.49;64.30;;